createdAt,value
2019-03-24T00:00:30.333Z,97601.31
2019-03-24T00:03:00.022Z,97599.64
2019-03-24T00:05:29.646Z,97593.03
2019-03-24T00:07:59.401Z,97596.53
2019-03-24T00:10:28.989Z,97593.20
2019-03-24T00:12:58.606Z,97591.87
2019-03-24T00:15:28.270Z,97588.20
2019-03-24T00:17:57.950Z,97589.17
2019-03-24T00:20:27.565Z,97581.83
2019-03-24T00:22:57.183Z,97578.09
2019-03-24T00:25:26.800Z,97589.92
2019-03-24T00:27:56.413Z,97587.11
2019-03-24T00:30:26.002Z,97586.53
2019-03-24T00:32:55.629Z,97589.57
2019-03-24T00:35:25.217Z,97580.62
2019-03-24T00:37:54.807Z,97585.67
2019-03-24T00:40:24.798Z,97580.16
2019-03-24T00:42:54.538Z,97576.46
2019-03-24T00:45:24.145Z,97579.20
2019-03-24T00:47:53.767Z,97574.05
2019-03-24T00:50:23.352Z,97572.47
2019-03-24T00:52:52.942Z,97563.59
2019-03-24T00:55:22.556Z,97563.83
2019-03-24T00:57:52.147Z,97563.92
2019-03-24T01:00:31.925Z,97561.16
2019-03-24T01:03:01.517Z,97560.07
2019-03-24T01:05:31.146Z,97557.27
2019-03-24T01:08:00.834Z,97553.23
2019-03-24T01:10:30.432Z,97554.11
2019-03-24T01:13:00.051Z,97550.62
2019-03-24T01:15:29.678Z,97550.15
2019-03-24T01:17:59.356Z,97543.71
2019-03-24T01:20:28.967Z,97550.20
2019-03-24T01:22:58.585Z,97546.63
2019-03-24T01:25:28.210Z,97541.45
2019-03-24T01:27:57.805Z,97530.77
2019-03-24T01:30:27.415Z,97531.24
2019-03-24T01:32:57.024Z,97531.39
2019-03-24T01:35:26.685Z,97524.39
2019-03-24T01:37:56.302Z,97518.02
2019-03-24T01:40:25.991Z,97513.25
2019-03-24T01:42:55.759Z,97516.69
2019-03-24T01:45:25.374Z,97512.62
2019-03-24T01:47:55.073Z,97515.39
2019-03-24T01:50:24.666Z,97502.16
2019-03-24T01:52:54.268Z,97503.24
2019-03-24T01:55:23.897Z,97502.17
2019-03-24T01:57:53.486Z,97499.28
2019-03-24T02:00:23.170Z,97499.98
2019-03-24T02:02:52.786Z,97501.31
2019-03-24T02:05:22.378Z,97499.14
2019-03-24T02:07:52.062Z,97487.26
2019-03-24T02:10:21.861Z,97486.88
2019-03-24T02:12:51.548Z,97486.05
2019-03-24T02:15:21.167Z,97474.52
2019-03-24T02:17:50.757Z,97481.51
2019-03-24T02:20:20.586Z,97479.91
2019-03-24T02:22:50.171Z,97479.69
2019-03-24T02:25:19.760Z,97476.70
2019-03-24T02:27:49.378Z,97481.86
2019-03-24T02:30:19.109Z,97482.12
2019-03-24T02:32:48.706Z,97482.00
2019-03-24T02:35:18.297Z,97478.52
2019-03-24T02:37:47.913Z,97477.09
2019-03-24T02:40:18.239Z,97475.09
2019-03-24T02:42:47.850Z,97478.31
2019-03-24T02:45:17.807Z,97471.95
2019-03-24T02:47:47.400Z,97470.63
2019-03-24T02:50:17.243Z,97471.70
2019-03-24T02:52:46.805Z,97468.10
2019-03-24T02:55:16.563Z,97474.34
2019-03-24T02:57:47.097Z,97476.14
2019-03-24T03:00:17.309Z,97480.80
2019-03-24T03:02:46.885Z,97480.22
2019-03-24T03:05:16.840Z,97474.31
2019-03-24T03:07:46.459Z,97475.31
2019-03-24T03:10:16.818Z,97475.45
2019-03-24T03:12:47.752Z,97475.30
2019-03-24T03:15:17.783Z,97480.09
2019-03-24T03:17:47.401Z,97480.23
2019-03-24T03:20:17.326Z,97475.55
2019-03-24T03:22:46.944Z,97472.08
2019-03-24T03:25:16.669Z,97471.66
2019-03-24T03:27:46.285Z,97477.46
2019-03-24T03:30:16.011Z,97478.30
2019-03-24T03:32:45.630Z,97476.39
2019-03-24T03:35:15.308Z,97482.39
2019-03-24T03:37:44.946Z,97475.80
2019-03-24T03:40:14.879Z,97479.05
2019-03-24T03:42:44.930Z,97470.41
2019-03-24T03:45:17.664Z,97465.13
2019-03-24T03:47:47.258Z,97471.70
2019-03-24T03:50:16.903Z,97468.59
2019-03-24T03:52:46.499Z,97469.77
2019-03-24T03:55:16.118Z,97472.77
2019-03-24T03:57:45.730Z,97461.73
2019-03-24T04:00:16.084Z,97468.13
2019-03-24T04:02:45.646Z,97461.52
2019-03-24T04:05:15.269Z,97467.34
2019-03-24T04:07:44.865Z,97467.98
2019-03-24T04:10:14.450Z,97471.11
2019-03-24T04:12:44.073Z,97468.11
2019-03-24T04:15:13.841Z,97470.65
2019-03-24T04:17:43.430Z,97467.05
2019-03-24T04:20:13.183Z,97468.59
2019-03-24T04:22:43.066Z,97462.60
2019-03-24T04:25:12.767Z,97452.67
2019-03-24T04:27:42.385Z,97452.73
2019-03-24T04:30:12.783Z,97450.21
2019-03-24T04:32:42.398Z,97449.98
2019-03-24T04:35:12.343Z,97453.81
2019-03-24T04:37:41.926Z,97454.50
2019-03-24T04:40:11.780Z,97458.22
2019-03-24T04:42:41.369Z,97452.95
2019-03-24T04:45:11.315Z,97452.14
2019-03-24T04:47:40.910Z,97454.54
2019-03-24T04:50:11.030Z,97458.39
2019-03-24T04:52:40.620Z,97460.06
2019-03-24T04:55:10.774Z,97452.86
2019-03-24T04:57:40.361Z,97452.30
2019-03-24T05:00:11.187Z,97451.92
2019-03-24T05:02:40.802Z,97458.22
2019-03-24T05:05:11.296Z,97460.38
2019-03-24T05:07:42.025Z,97457.09
2019-03-24T05:10:28.653Z,97456.00
2019-03-24T05:12:58.407Z,97463.70
2019-03-24T05:15:28.119Z,97464.20
2019-03-24T05:17:57.706Z,97465.96
2019-03-24T05:20:27.390Z,97464.83
2019-03-24T05:22:57.012Z,97459.22
2019-03-24T05:25:26.600Z,97463.80
2019-03-24T05:27:56.219Z,97454.95
2019-03-24T05:30:25.810Z,97459.97
2019-03-24T05:32:55.397Z,97457.55
2019-03-24T05:35:25.012Z,97454.91
2019-03-24T05:37:54.683Z,97452.16
2019-03-24T05:40:24.390Z,97451.78
2019-03-24T05:42:53.995Z,97451.17
2019-03-24T05:45:23.604Z,97440.00
2019-03-24T05:47:53.313Z,97438.28
2019-03-24T05:50:22.900Z,97436.27
2019-03-24T05:52:52.491Z,97436.57
2019-03-24T05:55:22.104Z,97442.52
2019-03-24T05:57:51.693Z,97435.14
2019-03-24T06:00:21.380Z,97433.54
2019-03-24T06:02:50.996Z,97434.16
2019-03-24T06:05:20.586Z,97438.91
2019-03-24T06:07:50.204Z,97436.48
2019-03-24T06:10:19.798Z,97441.11
2019-03-24T06:12:49.464Z,97440.25
2019-03-24T06:15:19.079Z,97440.86
2019-03-24T06:17:48.698Z,97435.76
2019-03-24T06:20:18.381Z,97433.42
2019-03-24T06:22:47.990Z,97430.63
2019-03-24T06:25:17.622Z,97428.72
2019-03-24T06:27:47.217Z,97421.02
2019-03-24T06:30:17.305Z,97428.12
2019-03-24T06:32:46.921Z,97421.05
2019-03-24T06:35:16.511Z,97422.53
2019-03-24T06:37:46.135Z,97422.84
2019-03-24T06:40:15.962Z,97422.44
2019-03-24T06:42:45.555Z,97412.17
2019-03-24T06:45:15.389Z,97417.30
2019-03-24T06:47:44.995Z,97422.23
2019-03-24T06:50:14.991Z,97410.72
2019-03-24T06:52:44.614Z,97419.41
2019-03-24T06:55:14.346Z,97421.28
2019-03-24T06:57:43.967Z,97417.89
2019-03-24T07:00:14.095Z,97414.30
2019-03-24T07:02:43.721Z,97409.80
2019-03-24T07:05:14.421Z,97409.77
2019-03-24T07:07:44.039Z,97410.52
2019-03-24T07:10:13.880Z,97406.88
2019-03-24T07:12:43.506Z,97414.22
2019-03-24T07:15:13.341Z,97415.70
2019-03-24T07:17:42.978Z,97413.73
2019-03-24T07:20:13.384Z,97414.99
2019-03-24T07:22:42.980Z,97413.48
2019-03-24T07:25:12.817Z,97415.25
2019-03-24T07:27:42.411Z,97406.12
2019-03-24T07:30:13.443Z,97403.03
2019-03-24T07:32:43.071Z,97400.97
2019-03-24T07:35:12.742Z,97398.77
2019-03-24T07:37:42.416Z,97398.42
2019-03-24T07:40:12.557Z,97394.80
2019-03-24T07:42:42.180Z,97398.05
2019-03-24T07:45:12.316Z,97394.10
2019-03-24T07:47:41.945Z,97392.22
2019-03-24T07:50:12.068Z,97385.83
2019-03-24T07:52:41.663Z,97382.78
2019-03-24T07:55:11.532Z,97380.48
2019-03-24T07:57:41.156Z,97374.94
2019-03-24T08:00:12.773Z,97373.98
2019-03-24T08:02:51.825Z,97368.68
2019-03-24T08:05:21.452Z,97365.37
2019-03-24T08:07:51.048Z,97364.39
2019-03-24T08:10:20.678Z,97362.11
2019-03-24T08:12:50.369Z,97356.71
2019-03-24T08:15:20.088Z,97355.02
2019-03-24T08:17:49.676Z,97349.41
2019-03-24T08:20:19.424Z,97346.56
2019-03-24T08:22:49.019Z,97347.52
2019-03-24T08:25:19.206Z,97342.05
2019-03-24T08:27:48.826Z,97341.43
2019-03-24T08:30:28.953Z,97334.50
2019-03-24T08:32:58.619Z,97331.41
2019-03-24T08:35:28.231Z,97336.61
2019-03-24T08:37:57.925Z,97326.88
2019-03-24T08:40:27.554Z,97324.40
2019-03-24T08:42:57.239Z,97319.28
2019-03-24T08:45:29.720Z,97315.64
2019-03-24T08:48:00.050Z,97312.27
2019-03-24T08:50:29.812Z,97306.27
2019-03-24T08:52:59.566Z,97301.96
2019-03-24T08:55:29.198Z,97304.14
2019-03-24T08:57:58.791Z,97299.49
2019-03-24T09:00:30.898Z,97296.65
2019-03-24T09:02:59.732Z,97293.19
2019-03-24T09:05:29.327Z,97284.27
2019-03-24T09:07:58.947Z,97280.53
2019-03-24T09:10:28.640Z,97271.38
2019-03-24T09:12:58.234Z,97265.48
2019-03-24T09:15:27.873Z,97266.99
2019-03-24T09:17:57.472Z,97258.25
2019-03-24T09:20:27.068Z,97257.44
2019-03-24T09:22:56.693Z,97248.36
2019-03-24T09:25:26.329Z,97241.70
2019-03-24T09:27:55.991Z,97243.36
2019-03-24T09:30:36.456Z,97234.53
2019-03-24T09:33:06.586Z,97233.89
2019-03-24T09:35:36.519Z,97234.40
2019-03-24T09:38:06.530Z,97232.24
2019-03-24T09:40:37.261Z,97234.63
2019-03-24T09:43:07.276Z,97230.92
2019-03-24T09:45:37.065Z,97232.19
2019-03-24T09:48:07.023Z,97223.48
2019-03-24T09:50:37.146Z,97221.94
2019-03-24T09:53:06.948Z,97218.72
2019-03-24T09:55:36.583Z,97227.27
2019-03-24T09:58:06.422Z,97218.08
2019-03-24T10:00:36.025Z,97214.67
2019-03-24T10:03:06.003Z,97208.81
2019-03-24T10:05:35.610Z,97211.44
2019-03-24T10:08:05.633Z,97212.25
2019-03-24T10:10:35.258Z,97199.27
2019-03-24T10:13:04.952Z,97202.64
2019-03-24T10:15:34.622Z,97194.95
2019-03-24T10:18:04.288Z,97186.69
2019-03-24T10:20:33.924Z,97176.78
2019-03-24T10:23:03.592Z,97176.59
2019-03-24T10:25:33.213Z,97171.53
2019-03-24T10:28:02.844Z,97174.79
2019-03-24T10:30:32.472Z,97181.58
2019-03-24T10:33:02.173Z,97171.00
2019-03-24T10:35:31.794Z,97169.39
2019-03-24T10:38:01.393Z,97163.04
2019-03-24T10:40:31.031Z,97150.64
2019-03-24T10:43:00.744Z,97155.31
2019-03-24T10:45:30.368Z,97153.62
2019-03-24T10:47:59.967Z,97148.42
2019-03-24T10:50:29.599Z,97147.16
2019-03-24T10:52:59.195Z,97144.27
2019-03-24T10:55:28.835Z,97138.20
2019-03-24T10:57:58.440Z,97134.20
2019-03-24T11:00:42.659Z,97135.17
2019-03-24T11:03:12.350Z,97130.56
2019-03-24T11:05:42.384Z,97127.50
2019-03-24T11:08:12.157Z,97120.21
2019-03-24T11:10:42.755Z,97119.31
2019-03-24T11:13:12.354Z,97119.39
2019-03-24T11:15:41.964Z,97114.03
2019-03-24T11:18:11.610Z,97114.41
2019-03-24T11:20:41.209Z,97117.46
2019-03-24T11:23:11.948Z,97104.25
2019-03-24T11:25:41.578Z,97109.23
2019-03-24T11:28:11.264Z,97103.63
2019-03-24T11:30:40.973Z,97094.43
2019-03-24T11:33:10.639Z,97091.63
2019-03-24T11:35:40.240Z,97082.98
2019-03-24T11:38:09.874Z,97078.53
2019-03-24T11:40:39.478Z,97074.26
2019-03-24T11:43:09.099Z,97065.83
2019-03-24T11:45:38.696Z,97058.35
2019-03-24T11:48:08.354Z,97052.42
2019-03-24T11:50:37.945Z,97043.78
2019-03-24T11:53:07.652Z,97039.98
2019-03-24T11:55:37.251Z,97030.09
2019-03-24T11:58:06.994Z,97032.02
2019-03-24T12:00:38.899Z,97027.28
2019-03-24T12:03:08.635Z,97023.16
2019-03-24T12:05:38.396Z,97016.34
2019-03-24T12:08:08.257Z,97010.19
2019-03-24T12:10:38.123Z,96997.92
2019-03-24T12:13:07.753Z,96996.38
2019-03-24T12:15:37.734Z,96995.36
2019-03-24T12:18:07.398Z,96988.67
2019-03-24T12:20:37.023Z,96983.41
2019-03-24T12:23:06.696Z,96974.02
2019-03-24T12:25:36.330Z,96970.47
2019-03-24T12:28:06.097Z,96966.92
2019-03-24T12:30:35.728Z,96959.91
2019-03-24T12:33:05.459Z,96955.38
2019-03-24T12:35:35.143Z,96944.25
2019-03-24T12:38:05.250Z,96936.34
2019-03-24T12:40:34.958Z,96932.05
2019-03-24T12:43:04.826Z,96930.52
2019-03-24T12:45:34.422Z,96923.70
2019-03-24T12:48:04.149Z,96922.34
2019-03-24T12:50:33.778Z,96917.00
2019-03-24T12:53:03.547Z,96910.98
2019-03-24T12:55:33.139Z,96903.64
2019-03-24T12:58:02.749Z,96902.86
2019-03-24T13:00:39.853Z,96903.27
2019-03-24T13:03:09.898Z,96904.53
2019-03-24T13:05:39.628Z,96893.09
2019-03-24T13:08:14.615Z,96891.45
2019-03-24T13:10:45.422Z,96895.93
2019-03-24T13:13:15.182Z,96893.33
2019-03-24T13:15:45.050Z,96893.45
2019-03-24T13:18:14.747Z,96877.34
2019-03-24T13:20:44.438Z,96879.61
2019-03-24T13:23:14.218Z,96877.38
2019-03-24T13:25:43.845Z,96862.27
2019-03-24T13:28:13.450Z,96870.69
2019-03-24T13:30:43.142Z,96865.91
2019-03-24T13:33:12.835Z,96865.10
2019-03-24T13:35:42.901Z,96863.79
2019-03-24T13:38:12.536Z,96851.99
2019-03-24T13:40:42.249Z,96849.36
2019-03-24T13:43:11.877Z,96846.13
2019-03-24T13:45:41.470Z,96843.78
2019-03-24T13:48:11.343Z,96839.81
2019-03-24T13:50:41.007Z,96835.33
2019-03-24T13:53:10.643Z,96831.58
2019-03-24T13:55:40.270Z,96834.20
2019-03-24T13:58:11.967Z,96829.73
2019-03-24T14:00:41.306Z,96820.20
2019-03-24T14:03:10.985Z,96813.19
2019-03-24T14:05:40.584Z,96814.27
2019-03-24T14:08:10.285Z,96810.09
2019-03-24T14:10:39.963Z,96805.27
2019-03-24T14:13:09.591Z,96804.12
2019-03-24T14:15:39.259Z,96801.95
2019-03-24T14:18:08.958Z,96798.59
2019-03-24T14:20:43.328Z,96790.56
2019-03-24T14:23:09.882Z,96791.27
2019-03-24T14:25:39.502Z,96779.51
2019-03-24T14:28:09.096Z,96779.93
2019-03-24T14:30:44.331Z,96784.87
2019-03-24T14:33:14.486Z,96773.53
2019-03-24T14:35:44.455Z,96766.71
2019-03-24T14:38:14.257Z,96764.70
2019-03-24T14:40:44.222Z,96766.47
2019-03-24T14:43:13.959Z,96760.63
2019-03-24T14:45:43.590Z,96751.66
2019-03-24T14:48:13.235Z,96747.45
2019-03-24T14:50:53.553Z,96746.72
2019-03-24T14:53:14.262Z,96736.74
2019-03-24T14:55:43.861Z,96741.30
2019-03-24T14:58:13.614Z,96741.43
2019-03-24T15:00:44.639Z,96734.73
2019-03-24T15:03:14.304Z,96739.00
2019-03-24T15:05:44.074Z,96732.13
2019-03-24T15:08:13.894Z,96726.18
2019-03-24T15:10:43.515Z,96724.02
2019-03-24T15:13:13.140Z,96715.29
2019-03-24T15:15:42.737Z,96716.66
2019-03-24T15:18:12.338Z,96716.23
2019-03-24T15:20:42.032Z,96710.12
2019-03-24T15:23:11.637Z,96705.53
2019-03-24T15:25:41.258Z,96701.28
2019-03-24T15:28:10.876Z,96701.08
2019-03-24T15:30:40.475Z,96698.78
2019-03-24T15:33:10.105Z,96700.56
2019-03-24T15:35:39.777Z,96696.25
2019-03-24T15:38:09.501Z,96704.42
2019-03-24T15:40:39.099Z,96699.41
2019-03-24T15:43:08.720Z,96697.78
2019-03-24T15:45:38.346Z,96693.47
2019-03-24T15:48:07.945Z,96692.73
2019-03-24T15:50:37.579Z,96697.64
2019-03-24T15:53:07.187Z,96698.05
2019-03-24T15:55:36.787Z,96687.28
2019-03-24T15:58:06.415Z,96695.41
2019-03-24T16:00:45.143Z,96696.45
2019-03-24T16:03:14.790Z,96691.76
2019-03-24T16:05:44.418Z,96685.96
2019-03-24T16:08:14.187Z,96688.84
2019-03-24T16:10:43.889Z,96690.33
2019-03-24T16:13:13.488Z,96692.68
2019-03-24T16:15:43.114Z,96688.30
2019-03-24T16:18:12.924Z,96693.28
2019-03-24T16:20:42.622Z,96693.59
2019-03-24T16:23:12.212Z,96693.33
2019-03-24T16:25:41.835Z,96681.37
2019-03-24T16:28:11.476Z,96685.59
2019-03-24T16:30:41.111Z,96676.11
2019-03-24T16:33:10.798Z,96682.44
2019-03-24T16:35:40.394Z,96679.88
2019-03-24T16:38:10.014Z,96680.42
2019-03-24T16:40:41.449Z,96683.36
2019-03-24T16:43:11.039Z,96682.70
2019-03-24T16:45:40.638Z,96681.02
2019-03-24T16:48:10.281Z,96679.81
2019-03-24T16:50:39.954Z,96677.05
2019-03-24T16:53:09.580Z,96670.29
2019-03-24T16:55:39.170Z,96673.52
2019-03-24T16:58:09.539Z,96682.59
2019-03-24T17:00:39.135Z,96681.72
2019-03-24T17:03:08.757Z,96683.73
2019-03-24T17:05:38.358Z,96684.89
2019-03-24T17:08:08.053Z,96689.83
2019-03-24T17:10:37.754Z,96680.29
2019-03-24T17:13:07.379Z,96683.23
2019-03-24T17:15:37.101Z,96685.09
2019-03-24T17:18:07.109Z,96682.56
2019-03-24T17:20:36.735Z,96689.23
2019-03-24T17:23:06.577Z,96691.91
2019-03-24T17:25:36.210Z,96687.58
2019-03-24T17:28:06.737Z,96688.83
2019-03-24T17:30:36.370Z,96690.31
2019-03-24T17:33:06.214Z,96688.22
2019-03-24T17:35:35.973Z,96696.08
2019-03-24T17:38:05.868Z,96694.22
2019-03-24T17:40:38.815Z,96696.06
2019-03-24T17:43:07.158Z,96697.84
2019-03-24T17:45:36.865Z,96695.05
2019-03-24T17:48:06.805Z,96697.14
2019-03-24T17:50:36.468Z,96699.05
2019-03-24T17:53:06.979Z,96710.81
2019-03-24T17:55:36.749Z,96710.92
2019-03-24T17:58:06.640Z,96716.60
2019-03-24T18:00:44.525Z,96718.16
2019-03-24T18:03:14.385Z,96710.92
2019-03-24T18:05:44.059Z,96722.19
2019-03-24T18:08:13.791Z,96714.73
2019-03-24T18:10:43.462Z,96714.30
2019-03-24T18:13:13.090Z,96712.86
2019-03-24T18:15:42.716Z,96715.56
2019-03-24T18:18:12.432Z,96715.70
2019-03-24T18:20:42.031Z,96720.15
2019-03-24T18:23:11.655Z,96722.71
2019-03-24T18:25:41.427Z,96722.83
2019-03-24T18:28:11.167Z,96720.69
2019-03-24T18:30:40.867Z,96722.33
2019-03-24T18:33:10.496Z,96715.53
2019-03-24T18:35:40.095Z,96721.91
2019-03-24T18:38:09.900Z,96725.13
2019-03-24T18:40:39.604Z,96724.10
2019-03-24T18:43:09.305Z,96733.89
2019-03-24T18:45:38.973Z,96732.20
2019-03-24T18:48:09.107Z,96738.44
2019-03-24T18:50:38.727Z,96731.34
2019-03-24T18:53:08.335Z,96732.77
2019-03-24T18:55:38.013Z,96738.75
2019-03-24T18:58:07.625Z,96744.88
2019-03-24T19:00:37.259Z,96742.08
2019-03-24T19:03:06.876Z,96740.78
2019-03-24T19:05:36.515Z,96750.62
2019-03-24T19:08:06.126Z,96758.34
2019-03-24T19:10:35.839Z,96759.05
2019-03-24T19:13:06.103Z,96765.44
2019-03-24T19:15:37.451Z,96769.02
2019-03-24T19:18:07.307Z,96768.81
2019-03-24T19:20:36.924Z,96771.05
2019-03-24T19:23:06.588Z,96774.88
2019-03-24T19:25:36.224Z,96777.21
2019-03-24T19:28:05.899Z,96780.47
2019-03-24T19:30:38.512Z,96783.80
2019-03-24T19:33:08.389Z,96793.88
2019-03-24T19:35:38.327Z,96795.45
2019-03-24T19:38:08.056Z,96789.58
2019-03-24T19:40:37.826Z,96797.73
2019-03-24T19:43:07.457Z,96786.08
2019-03-24T19:45:37.050Z,96791.47
2019-03-24T19:48:06.988Z,96794.34
2019-03-24T19:50:36.744Z,96800.14
2019-03-24T19:53:06.617Z,96804.17
2019-03-24T19:55:36.286Z,96803.86
2019-03-24T19:58:06.128Z,96799.77
2019-03-24T20:00:35.762Z,96808.63
2019-03-24T20:03:05.668Z,96806.41
2019-03-24T20:05:35.335Z,96809.67
2019-03-24T20:08:05.222Z,96803.84
2019-03-24T20:10:34.815Z,96812.77
2019-03-24T20:13:04.756Z,96812.45
2019-03-24T20:15:34.372Z,96807.19
2019-03-24T20:18:04.005Z,96809.25
2019-03-24T20:20:33.692Z,96811.71
2019-03-24T20:23:03.318Z,96812.09
2019-03-24T20:25:32.932Z,96812.27
2019-03-24T20:28:02.536Z,96812.39
2019-03-24T20:30:32.155Z,96815.19
2019-03-24T20:33:01.772Z,96812.09
2019-03-24T20:35:31.366Z,96818.98
2019-03-24T20:38:01.091Z,96818.78
2019-03-24T20:40:30.678Z,96822.61
2019-03-24T20:43:00.410Z,96823.95
2019-03-24T20:45:29.994Z,96831.49
2019-03-24T20:47:59.721Z,96827.02
2019-03-24T20:50:29.317Z,96821.25
2019-03-24T20:53:04.098Z,96824.23
2019-03-24T20:55:30.256Z,96823.47
2019-03-24T20:57:59.882Z,96823.08
2019-03-24T21:00:37.376Z,96820.72
2019-03-24T21:03:09.003Z,96821.07
2019-03-24T21:05:38.689Z,96812.52
2019-03-24T21:08:08.620Z,96814.47
2019-03-24T21:10:38.407Z,96818.98
2019-03-24T21:13:08.098Z,96807.64
2019-03-24T21:15:37.777Z,96807.86
2019-03-24T21:18:07.390Z,96816.01
2019-03-24T21:20:36.991Z,96808.66
2019-03-24T21:23:06.688Z,96815.55
2019-03-24T21:25:36.279Z,96813.27
2019-03-24T21:28:06.340Z,96818.05
2019-03-24T21:30:39.210Z,96817.73
2019-03-24T21:33:09.119Z,96815.40
2019-03-24T21:35:38.748Z,96817.20
2019-03-24T21:38:08.603Z,96821.11
2019-03-24T21:40:38.291Z,96815.15
2019-03-24T21:43:07.910Z,96813.97
2019-03-24T21:45:37.605Z,96818.38
2019-03-24T21:48:07.435Z,96814.47
2019-03-24T21:50:37.080Z,96810.52
2019-03-24T21:53:06.791Z,96810.02
2019-03-24T21:55:36.406Z,96821.48
2019-03-24T21:58:06.233Z,96815.82
2019-03-24T22:00:37.577Z,96809.02
2019-03-24T22:03:07.578Z,96812.50
2019-03-24T22:05:37.506Z,96805.36
2019-03-24T22:08:07.365Z,96801.88
2019-03-24T22:10:37.982Z,96791.77
2019-03-24T22:13:07.641Z,96791.25
2019-03-24T22:15:37.322Z,96788.38
2019-03-24T22:18:07.350Z,96786.44
2019-03-24T22:20:48.228Z,96796.20
2019-03-24T22:23:08.421Z,96791.09
2019-03-24T22:25:38.042Z,96798.67
2019-03-24T22:28:07.633Z,96792.20
2019-03-24T22:30:37.324Z,96789.95
2019-03-24T22:33:06.963Z,96789.94
2019-03-24T22:35:36.577Z,96783.47
2019-03-24T22:38:06.339Z,96782.28
2019-03-24T22:40:35.934Z,96773.20
2019-03-24T22:43:05.858Z,96780.28
2019-03-24T22:45:35.846Z,96770.60
2019-03-24T22:48:05.687Z,96766.60
2019-03-24T22:50:35.283Z,96770.13
2019-03-24T22:53:04.937Z,96765.97
2019-03-24T22:55:34.626Z,96764.00
2019-03-24T22:58:04.222Z,96753.17
2019-03-24T23:00:53.557Z,96754.42
2019-03-24T23:03:25.271Z,96755.08
2019-03-24T23:05:55.227Z,96746.61
2019-03-24T23:08:24.818Z,96744.09
2019-03-24T23:10:54.427Z,96741.05
2019-03-24T23:13:24.035Z,96732.66
2019-03-24T23:15:53.649Z,96715.73
2019-03-24T23:18:23.311Z,96716.86
2019-03-24T23:20:53.066Z,96715.03
2019-03-24T23:23:22.653Z,96715.19
2019-03-24T23:25:52.344Z,96712.81
2019-03-24T23:28:21.929Z,96710.00
2019-03-24T23:30:51.615Z,96699.67
2019-03-24T23:33:21.231Z,96703.52
2019-03-24T23:35:50.817Z,96696.84
2019-03-24T23:38:20.504Z,96694.55
2019-03-24T23:40:50.090Z,96693.16
2019-03-24T23:43:19.774Z,96692.70
2019-03-24T23:45:49.357Z,96682.11
2019-03-24T23:48:18.973Z,96680.67
2019-03-24T23:50:48.738Z,96676.75
2019-03-24T23:53:18.361Z,96674.88
2019-03-24T23:55:47.952Z,96678.75
2019-03-24T23:58:17.670Z,96666.25
